sensor_id;sensor_type;location;lat;lon;timestamp;P1;durP1;ratioP1;P2;durP2;ratioP2
59830;SDS011;45711;50.108;13.712;2024-03-22T00:01:53;14.98;;;9.52;;
59830;SDS011;45711;50.108;13.712;2024-03-22T00:04:22;16.02;;;9.80;;
59830;SDS011;45711;50.108;13.712;2024-03-22T00:06:48;19.40;;;10.57;;
59830;SDS011;45711;50.108;13.712;2024-03-22T00:09:14;16.83;;;10.32;;
59830;SDS011;45711;50.108;13.712;2024-03-22T00:11:41;18.30;;;11.10;;
59830;SDS011;45711;50.108;13.712;2024-03-22T00:14:09;20.63;;;11.25;;
59830;SDS011;45711;50.108;13.712;2024-03-22T00:16:35;19.50;;;11.48;;
59830;SDS011;45711;50.108;13.712;2024-03-22T00:19:01;25.08;;;12.35;;
59830;SDS011;45711;50.108;13.712;2024-03-22T00:21:27;22.33;;;12.75;;
59830;SDS011;45711;50.108;13.712;2024-03-22T00:23:55;22.75;;;12.85;;
59830;SDS011;45711;50.108;13.712;2024-03-22T00:26:26;22.13;;;12.20;;
59830;SDS011;45711;50.108;13.712;2024-03-22T00:28:57;22.50;;;11.38;;
59830;SDS011;45711;50.108;13.712;2024-03-22T00:31:26;21.95;;;10.73;;
59830;SDS011;45711;50.108;13.712;2024-03-22T00:33:51;21.65;;;12.52;;
59830;SDS011;45711;50.108;13.712;2024-03-22T00:36:17;18.70;;;11.60;;
59830;SDS011;45711;50.108;13.712;2024-03-22T00:38:42;27.15;;;12.88;;
59830;SDS011;45711;50.108;13.712;2024-03-22T00:41:07;20.63;;;11.60;;
59830;SDS011;45711;50.108;13.712;2024-03-22T00:43:35;17.88;;;11.55;;
59830;SDS011;45711;50.108;13.712;2024-03-22T00:46:00;20.42;;;12.38;;
59830;SDS011;45711;50.108;13.712;2024-03-22T00:48:30;20.00;;;12.82;;
59830;SDS011;45711;50.108;13.712;2024-03-22T00:50:55;25.60;;;12.98;;
59830;SDS011;45711;50.108;13.712;2024-03-22T00:53:21;23.00;;;13.02;;
59830;SDS011;45711;50.108;13.712;2024-03-22T00:55:46;22.95;;;13.27;;
59830;SDS011;45711;50.108;13.712;2024-03-22T00:58:16;21.95;;;13.50;;
59830;SDS011;45711;50.108;13.712;2024-03-22T01:00:43;23.30;;;13.15;;
59830;SDS011;45711;50.108;13.712;2024-03-22T01:03:09;24.40;;;13.35;;
59830;SDS011;45711;50.108;13.712;2024-03-22T01:05:35;25.02;;;13.98;;
59830;SDS011;45711;50.108;13.712;2024-03-22T01:08:01;25.20;;;13.60;;
59830;SDS011;45711;50.108;13.712;2024-03-22T01:10:26;23.50;;;12.20;;
59830;SDS011;45711;50.108;13.712;2024-03-22T01:12:52;25.95;;;13.50;;
59830;SDS011;45711;50.108;13.712;2024-03-22T01:15:17;20.63;;;12.27;;
59830;SDS011;45711;50.108;13.712;2024-03-22T01:17:45;21.88;;;13.20;;
59830;SDS011;45711;50.108;13.712;2024-03-22T01:20:11;28.70;;;14.00;;
59830;SDS011;45711;50.108;13.712;2024-03-22T01:22:36;25.80;;;13.63;;
59830;SDS011;45711;50.108;13.712;2024-03-22T01:25:02;23.13;;;13.25;;
59830;SDS011;45711;50.108;13.712;2024-03-22T01:27:28;24.40;;;13.00;;
59830;SDS011;45711;50.108;13.712;2024-03-22T01:29:53;25.08;;;14.05;;
59830;SDS011;45711;50.108;13.712;2024-03-22T01:32:18;24.15;;;12.95;;
59830;SDS011;45711;50.108;13.712;2024-03-22T01:34:44;22.17;;;12.85;;
59830;SDS011;45711;50.108;13.712;2024-03-22T01:37:09;29.52;;;13.07;;
59830;SDS011;45711;50.108;13.712;2024-03-22T01:39:38;25.55;;;14.07;;
59830;SDS011;45711;50.108;13.712;2024-03-22T01:42:08;34.03;;;14.30;;
59830;SDS011;45711;50.108;13.712;2024-03-22T01:44:33;26.10;;;14.13;;
59830;SDS011;45711;50.108;13.712;2024-03-22T01:47:01;30.73;;;14.15;;
59830;SDS011;45711;50.108;13.712;2024-03-22T01:49:28;21.05;;;11.70;;
59830;SDS011;45711;50.108;13.712;2024-03-22T01:51:57;18.50;;;10.93;;
59830;SDS011;45711;50.108;13.712;2024-03-22T01:54:22;18.75;;;10.15;;
59830;SDS011;45711;50.108;13.712;2024-03-22T01:56:50;18.05;;;9.55;;
59830;SDS011;45711;50.108;13.712;2024-03-22T01:59:15;19.50;;;9.98;;
59830;SDS011;45711;50.108;13.712;2024-03-22T02:04:18;17.70;;;9.70;;
59830;SDS011;45711;50.108;13.712;2024-03-22T02:06:49;17.27;;;10.13;;
59830;SDS011;45711;50.108;13.712;2024-03-22T02:09:24;25.10;;;11.90;;
59830;SDS011;45711;50.108;13.712;2024-03-22T02:11:53;16.85;;;9.20;;
59830;SDS011;45711;50.108;13.712;2024-03-22T02:14:18;19.15;;;9.48;;
59830;SDS011;45711;50.108;13.712;2024-03-22T02:16:44;15.38;;;8.98;;
59830;SDS011;45711;50.108;13.712;2024-03-22T02:19:10;16.98;;;9.02;;
59830;SDS011;45711;50.108;13.712;2024-03-22T02:21:35;16.95;;;9.20;;
59830;SDS011;45711;50.108;13.712;2024-03-22T02:24:01;15.88;;;8.68;;
59830;SDS011;45711;50.108;13.712;2024-03-22T02:26:26;13.73;;;8.20;;
59830;SDS011;45711;50.108;13.712;2024-03-22T02:28:52;12.45;;;7.97;;
59830;SDS011;45711;50.108;13.712;2024-03-22T02:31:17;15.65;;;9.20;;
59830;SDS011;45711;50.108;13.712;2024-03-22T02:33:45;14.20;;;8.80;;
59830;SDS011;45711;50.108;13.712;2024-03-22T02:36:11;14.90;;;8.43;;
59830;SDS011;45711;50.108;13.712;2024-03-22T02:38:36;18.10;;;8.88;;
59830;SDS011;45711;50.108;13.712;2024-03-22T02:41:02;14.55;;;8.88;;
59830;SDS011;45711;50.108;13.712;2024-03-22T02:43:27;14.55;;;8.98;;
59830;SDS011;45711;50.108;13.712;2024-03-22T02:45:55;19.13;;;10.10;;
59830;SDS011;45711;50.108;13.712;2024-03-22T02:48:20;20.38;;;10.27;;
59830;SDS011;45711;50.108;13.712;2024-03-22T02:50:46;21.67;;;10.60;;
59830;SDS011;45711;50.108;13.712;2024-03-22T02:53:11;17.85;;;10.00;;
59830;SDS011;45711;50.108;13.712;2024-03-22T02:55:40;19.33;;;9.82;;
59830;SDS011;45711;50.108;13.712;2024-03-22T02:58:06;19.80;;;9.95;;
59830;SDS011;45711;50.108;13.712;2024-03-22T03:00:36;15.88;;;9.75;;
59830;SDS011;45711;50.108;13.712;2024-03-22T03:03:02;25.33;;;10.07;;
59830;SDS011;45711;50.108;13.712;2024-03-22T03:05:28;21.85;;;9.70;;
59830;SDS011;45711;50.108;13.712;2024-03-22T03:07:53;15.90;;;9.15;;
59830;SDS011;45711;50.108;13.712;2024-03-22T03:10:18;15.68;;;9.15;;
59830;SDS011;45711;50.108;13.712;2024-03-22T03:12:44;15.93;;;8.48;;
59830;SDS011;45711;50.108;13.712;2024-03-22T03:15:09;11.25;;;7.32;;
59830;SDS011;45711;50.108;13.712;2024-03-22T03:17:37;13.50;;;8.18;;
59830;SDS011;45711;50.108;13.712;2024-03-22T03:20:03;18.30;;;7.78;;
59830;SDS011;45711;50.108;13.712;2024-03-22T03:22:33;13.15;;;7.05;;
59830;SDS011;45711;50.108;13.712;2024-03-22T03:25:03;18.35;;;8.90;;
59830;SDS011;45711;50.108;13.712;2024-03-22T03:27:29;18.25;;;9.45;;
59830;SDS011;45711;50.108;13.712;2024-03-22T03:29:55;17.60;;;7.43;;
59830;SDS011;45711;50.108;13.712;2024-03-22T03:32:20;15.15;;;7.13;;
59830;SDS011;45711;50.108;13.712;2024-03-22T03:34:46;11.60;;;6.57;;
59830;SDS011;45711;50.108;13.712;2024-03-22T03:37:11;14.90;;;7.70;;
59830;SDS011;45711;50.108;13.712;2024-03-22T03:39:39;13.52;;;7.43;;
59830;SDS011;45711;50.108;13.712;2024-03-22T03:42:05;19.00;;;7.72;;
59830;SDS011;45711;50.108;13.712;2024-03-22T03:44:30;17.35;;;9.02;;
59830;SDS011;45711;50.108;13.712;2024-03-22T03:46:56;16.33;;;8.70;;
59830;SDS011;45711;50.108;13.712;2024-03-22T03:49:21;19.90;;;8.90;;
59830;SDS011;45711;50.108;13.712;2024-03-22T03:51:47;19.33;;;8.43;;
59830;SDS011;45711;50.108;13.712;2024-03-22T03:54:12;14.40;;;7.40;;
59830;SDS011;45711;50.108;13.712;2024-03-22T03:56:37;14.70;;;8.50;;
59830;SDS011;45711;50.108;13.712;2024-03-22T03:59:03;15.38;;;7.45;;
59830;SDS011;45711;50.108;13.712;2024-03-22T04:01:31;15.38;;;7.03;;
59830;SDS011;45711;50.108;13.712;2024-03-22T04:03:57;10.52;;;7.13;;
59830;SDS011;45711;50.108;13.712;2024-03-22T04:06:22;13.10;;;7.68;;
59830;SDS011;45711;50.108;13.712;2024-03-22T04:08:48;13.82;;;7.88;;
59830;SDS011;45711;50.108;13.712;2024-03-22T04:11:13;12.55;;;6.40;;
59830;SDS011;45711;50.108;13.712;2024-03-22T04:13:42;11.50;;;6.65;;
59830;SDS011;45711;50.108;13.712;2024-03-22T04:16:07;13.52;;;6.88;;
59830;SDS011;45711;50.108;13.712;2024-03-22T04:18:32;10.27;;;6.72;;
59830;SDS011;45711;50.108;13.712;2024-03-22T04:21:03;10.48;;;6.32;;
59830;SDS011;45711;50.108;13.712;2024-03-22T04:23:31;11.23;;;6.05;;
59830;SDS011;45711;50.108;13.712;2024-03-22T04:26:00;12.00;;;5.30;;
59830;SDS011;45711;50.108;13.712;2024-03-22T04:28:26;9.27;;;5.55;;
59830;SDS011;45711;50.108;13.712;2024-03-22T04:30:56;12.43;;;6.82;;
59830;SDS011;45711;50.108;13.712;2024-03-22T04:33:26;13.07;;;6.53;;
59830;SDS011;45711;50.108;13.712;2024-03-22T04:35:56;21.83;;;7.22;;
59830;SDS011;45711;50.108;13.712;2024-03-22T04:38:22;9.57;;;5.45;;
59830;SDS011;45711;50.108;13.712;2024-03-22T04:40:50;10.40;;;5.40;;
59830;SDS011;45711;50.108;13.712;2024-03-22T04:43:16;12.02;;;6.00;;
59830;SDS011;45711;50.108;13.712;2024-03-22T04:45:47;9.85;;;6.00;;
59830;SDS011;45711;50.108;13.712;2024-03-22T04:48:19;7.43;;;5.03;;
59830;SDS011;45711;50.108;13.712;2024-03-22T04:50:51;8.98;;;5.35;;
59830;SDS011;45711;50.108;13.712;2024-03-22T04:53:17;11.48;;;7.22;;
59830;SDS011;45711;50.108;13.712;2024-03-22T04:55:46;8.93;;;4.50;;
59830;SDS011;45711;50.108;13.712;2024-03-22T04:58:17;6.35;;;4.72;;
59830;SDS011;45711;50.108;13.712;2024-03-22T05:00:43;8.00;;;5.15;;
59830;SDS011;45711;50.108;13.712;2024-03-22T05:03:09;7.05;;;4.47;;
59830;SDS011;45711;50.108;13.712;2024-03-22T05:05:37;7.78;;;4.22;;
59830;SDS011;45711;50.108;13.712;2024-03-22T05:08:03;10.32;;;4.82;;
59830;SDS011;45711;50.108;13.712;2024-03-22T05:10:29;8.40;;;4.38;;
59830;SDS011;45711;50.108;13.712;2024-03-22T05:12:55;10.98;;;5.15;;
59830;SDS011;45711;50.108;13.712;2024-03-22T05:15:24;9.95;;;4.93;;
59830;SDS011;45711;50.108;13.712;2024-03-22T05:18:00;7.20;;;4.25;;
59830;SDS011;45711;50.108;13.712;2024-03-22T05:20:25;23.63;;;4.75;;
59830;SDS011;45711;50.108;13.712;2024-03-22T05:22:51;11.23;;;4.97;;
59830;SDS011;45711;50.108;13.712;2024-03-22T05:25:17;14.45;;;8.07;;
59830;SDS011;45711;50.108;13.712;2024-03-22T05:27:42;6.72;;;4.10;;
59830;SDS011;45711;50.108;13.712;2024-03-22T05:30:09;7.20;;;4.50;;
59830;SDS011;45711;50.108;13.712;2024-03-22T05:32:35;6.75;;;3.88;;
59830;SDS011;45711;50.108;13.712;2024-03-22T05:35:00;5.60;;;3.38;;
59830;SDS011;45711;50.108;13.712;2024-03-22T05:37:25;7.88;;;4.40;;
59830;SDS011;45711;50.108;13.712;2024-03-22T05:39:51;7.85;;;4.35;;
59830;SDS011;45711;50.108;13.712;2024-03-22T05:42:17;8.65;;;3.72;;
59830;SDS011;45711;50.108;13.712;2024-03-22T05:44:43;7.57;;;4.13;;
59830;SDS011;45711;50.108;13.712;2024-03-22T05:47:09;5.20;;;3.90;;
59830;SDS011;45711;50.108;13.712;2024-03-22T05:49:35;6.75;;;4.22;;
59830;SDS011;45711;50.108;13.712;2024-03-22T05:52:00;7.18;;;3.53;;
59830;SDS011;45711;50.108;13.712;2024-03-22T05:54:26;7.60;;;3.90;;
59830;SDS011;45711;50.108;13.712;2024-03-22T05:56:51;18.60;;;4.80;;
59830;SDS011;45711;50.108;13.712;2024-03-22T05:59:17;9.65;;;4.10;;
59830;SDS011;45711;50.108;13.712;2024-03-22T06:01:42;5.10;;;3.30;;
59830;SDS011;45711;50.108;13.712;2024-03-22T06:04:07;11.80;;;4.10;;
59830;SDS011;45711;50.108;13.712;2024-03-22T06:06:35;10.43;;;4.32;;
59830;SDS011;45711;50.108;13.712;2024-03-22T06:09:01;7.78;;;3.10;;
59830;SDS011;45711;50.108;13.712;2024-03-22T06:11:29;7.47;;;4.10;;
59830;SDS011;45711;50.108;13.712;2024-03-22T06:13:55;8.70;;;3.45;;
59830;SDS011;45711;50.108;13.712;2024-03-22T06:16:23;5.53;;;3.15;;
59830;SDS011;45711;50.108;13.712;2024-03-22T06:18:49;7.20;;;3.33;;
59830;SDS011;45711;50.108;13.712;2024-03-22T06:21:17;7.00;;;4.15;;
59830;SDS011;45711;50.108;13.712;2024-03-22T06:23:49;4.88;;;3.28;;
59830;SDS011;45711;50.108;13.712;2024-03-22T06:26:15;6.95;;;3.40;;
59830;SDS011;45711;50.108;13.712;2024-03-22T06:28:41;6.65;;;3.72;;
59830;SDS011;45711;50.108;13.712;2024-03-22T06:31:06;4.65;;;2.95;;
59830;SDS011;45711;50.108;13.712;2024-03-22T06:33:33;14.75;;;3.92;;
59830;SDS011;45711;50.108;13.712;2024-03-22T06:35:58;7.95;;;3.50;;
59830;SDS011;45711;50.108;13.712;2024-03-22T06:38:24;7.05;;;3.35;;
59830;SDS011;45711;50.108;13.712;2024-03-22T06:40:49;4.82;;;3.13;;
59830;SDS011;45711;50.108;13.712;2024-03-22T06:43:14;5.35;;;2.90;;
59830;SDS011;45711;50.108;13.712;2024-03-22T06:45:40;10.05;;;3.20;;
59830;SDS011;45711;50.108;13.712;2024-03-22T06:48:05;6.25;;;3.08;;
59830;SDS011;45711;50.108;13.712;2024-03-22T06:50:31;8.38;;;3.72;;
59830;SDS011;45711;50.108;13.712;2024-03-22T06:52:56;9.07;;;3.35;;
59830;SDS011;45711;50.108;13.712;2024-03-22T06:55:22;5.35;;;3.05;;
59830;SDS011;45711;50.108;13.712;2024-03-22T06:57:50;8.48;;;4.70;;
59830;SDS011;45711;50.108;13.712;2024-03-22T07:00:17;5.28;;;3.00;;
59830;SDS011;45711;50.108;13.712;2024-03-22T07:02:43;8.52;;;3.20;;
59830;SDS011;45711;50.108;13.712;2024-03-22T07:05:11;6.60;;;3.78;;
59830;SDS011;45711;50.108;13.712;2024-03-22T07:07:37;9.75;;;3.92;;
59830;SDS011;45711;50.108;13.712;2024-03-22T07:10:03;17.73;;;4.88;;
59830;SDS011;45711;50.108;13.712;2024-03-22T07:12:32;5.28;;;3.40;;
59830;SDS011;45711;50.108;13.712;2024-03-22T07:15:00;6.70;;;4.05;;
59830;SDS011;45711;50.108;13.712;2024-03-22T07:17:29;5.20;;;2.92;;
59830;SDS011;45711;50.108;13.712;2024-03-22T07:19:57;6.00;;;3.20;;
59830;SDS011;45711;50.108;13.712;2024-03-22T07:22:22;16.38;;;4.15;;
59830;SDS011;45711;50.108;13.712;2024-03-22T07:24:48;15.77;;;3.72;;
59830;SDS011;45711;50.108;13.712;2024-03-22T07:27:14;6.47;;;3.35;;
59830;SDS011;45711;50.108;13.712;2024-03-22T07:29:43;5.82;;;3.00;;
59830;SDS011;45711;50.108;13.712;2024-03-22T07:32:09;9.18;;;5.32;;
59830;SDS011;45711;50.108;13.712;2024-03-22T07:34:35;5.88;;;3.05;;
59830;SDS011;45711;50.108;13.712;2024-03-22T07:37:00;7.47;;;4.05;;
59830;SDS011;45711;50.108;13.712;2024-03-22T07:39:26;7.90;;;3.17;;
59830;SDS011;45711;50.108;13.712;2024-03-22T07:41:54;6.53;;;3.45;;
59830;SDS011;45711;50.108;13.712;2024-03-22T07:44:20;7.57;;;3.70;;
59830;SDS011;45711;50.108;13.712;2024-03-22T07:46:46;7.63;;;3.63;;
59830;SDS011;45711;50.108;13.712;2024-03-22T07:49:12;10.30;;;5.40;;
59830;SDS011;45711;50.108;13.712;2024-03-22T07:51:37;9.55;;;5.47;;
59830;SDS011;45711;50.108;13.712;2024-03-22T07:54:03;5.22;;;3.00;;
59830;SDS011;45711;50.108;13.712;2024-03-22T07:56:28;6.30;;;3.55;;
59830;SDS011;45711;50.108;13.712;2024-03-22T07:58:54;18.42;;;5.50;;
59830;SDS011;45711;50.108;13.712;2024-03-22T08:01:23;10.45;;;5.60;;
59830;SDS011;45711;50.108;13.712;2024-03-22T08:03:51;7.78;;;3.60;;
59830;SDS011;45711;50.108;13.712;2024-03-22T08:06:17;5.63;;;3.38;;
59830;SDS011;45711;50.108;13.712;2024-03-22T08:08:43;7.72;;;3.80;;
59830;SDS011;45711;50.108;13.712;2024-03-22T08:11:08;6.82;;;4.53;;
59830;SDS011;45711;50.108;13.712;2024-03-22T08:13:34;10.15;;;6.07;;
59830;SDS011;45711;50.108;13.712;2024-03-22T08:16:00;8.98;;;5.25;;
59830;SDS011;45711;50.108;13.712;2024-03-22T08:18:25;5.50;;;3.45;;
59830;SDS011;45711;50.108;13.712;2024-03-22T08:20:51;8.10;;;4.63;;
59830;SDS011;45711;50.108;13.712;2024-03-22T08:23:16;12.35;;;5.43;;
59830;SDS011;45711;50.108;13.712;2024-03-22T08:25:48;8.52;;;5.80;;
59830;SDS011;45711;50.108;13.712;2024-03-22T08:28:13;11.25;;;5.93;;
59830;SDS011;45711;50.108;13.712;2024-03-22T08:30:42;10.18;;;4.88;;
59830;SDS011;45711;50.108;13.712;2024-03-22T08:33:08;13.90;;;5.75;;
59830;SDS011;45711;50.108;13.712;2024-03-22T08:35:36;11.35;;;6.22;;
59830;SDS011;45711;50.108;13.712;2024-03-22T08:38:14;8.15;;;4.85;;
59830;SDS011;45711;50.108;13.712;2024-03-22T08:40:50;13.10;;;6.20;;
59830;SDS011;45711;50.108;13.712;2024-03-22T08:43:18;12.68;;;5.10;;
59830;SDS011;45711;50.108;13.712;2024-03-22T08:45:43;10.88;;;5.50;;
59830;SDS011;45711;50.108;13.712;2024-03-22T08:48:09;10.20;;;7.03;;
59830;SDS011;45711;50.108;13.712;2024-03-22T08:50:34;13.18;;;6.63;;
59830;SDS011;45711;50.108;13.712;2024-03-22T08:53:01;12.82;;;6.88;;
59830;SDS011;45711;50.108;13.712;2024-03-22T08:55:34;10.25;;;4.85;;
59830;SDS011;45711;50.108;13.712;2024-03-22T08:58:01;18.33;;;7.70;;
59830;SDS011;45711;50.108;13.712;2024-03-22T09:00:30;14.25;;;6.45;;
59830;SDS011;45711;50.108;13.712;2024-03-22T09:02:55;8.15;;;5.47;;
59830;SDS011;45711;50.108;13.712;2024-03-22T09:05:21;12.27;;;5.45;;
59830;SDS011;45711;50.108;13.712;2024-03-22T09:07:46;9.10;;;5.25;;
59830;SDS011;45711;50.108;13.712;2024-03-22T09:10:15;10.77;;;6.63;;
59830;SDS011;45711;50.108;13.712;2024-03-22T09:12:43;11.93;;;7.20;;
59830;SDS011;45711;50.108;13.712;2024-03-22T09:15:09;9.88;;;4.90;;
59830;SDS011;45711;50.108;13.712;2024-03-22T09:17:36;20.67;;;8.25;;
59830;SDS011;45711;50.108;13.712;2024-03-22T09:20:02;18.88;;;7.45;;
59830;SDS011;45711;50.108;13.712;2024-03-22T09:22:30;8.05;;;5.28;;
59830;SDS011;45711;50.108;13.712;2024-03-22T09:24:57;12.90;;;8.07;;
59830;SDS011;45711;50.108;13.712;2024-03-22T09:27:23;11.07;;;6.88;;
59830;SDS011;45711;50.108;13.712;2024-03-22T09:29:48;9.68;;;6.03;;
59830;SDS011;45711;50.108;13.712;2024-03-22T09:32:14;12.15;;;7.03;;
59830;SDS011;45711;50.108;13.712;2024-03-22T09:34:42;12.85;;;8.02;;
59830;SDS011;45711;50.108;13.712;2024-03-22T09:37:07;12.48;;;7.15;;
59830;SDS011;45711;50.108;13.712;2024-03-22T09:39:33;11.50;;;6.97;;
59830;SDS011;45711;50.108;13.712;2024-03-22T09:41:59;21.63;;;8.98;;
59830;SDS011;45711;50.108;13.712;2024-03-22T09:44:28;10.38;;;6.57;;
59830;SDS011;45711;50.108;13.712;2024-03-22T09:46:54;11.52;;;5.82;;
59830;SDS011;45711;50.108;13.712;2024-03-22T09:49:20;15.63;;;9.32;;
59830;SDS011;45711;50.108;13.712;2024-03-22T09:51:48;21.17;;;9.23;;
59830;SDS011;45711;50.108;13.712;2024-03-22T09:54:16;15.75;;;9.50;;
59830;SDS011;45711;50.108;13.712;2024-03-22T09:56:42;15.05;;;7.95;;
59830;SDS011;45711;50.108;13.712;2024-03-22T09:59:08;19.65;;;10.52;;
59830;SDS011;45711;50.108;13.712;2024-03-22T10:01:39;15.55;;;7.95;;
59830;SDS011;45711;50.108;13.712;2024-03-22T10:04:06;20.02;;;9.73;;
59830;SDS011;45711;50.108;13.712;2024-03-22T10:06:35;15.27;;;8.35;;
59830;SDS011;45711;50.108;13.712;2024-03-22T10:09:00;13.68;;;7.80;;
59830;SDS011;45711;50.108;13.712;2024-03-22T10:11:29;13.98;;;8.13;;
59830;SDS011;45711;50.108;13.712;2024-03-22T10:13:55;19.70;;;8.13;;
59830;SDS011;45711;50.108;13.712;2024-03-22T10:16:23;15.00;;;8.15;;
59830;SDS011;45711;50.108;13.712;2024-03-22T10:18:49;19.27;;;10.20;;
59830;SDS011;45711;50.108;13.712;2024-03-22T10:21:18;19.08;;;10.25;;
59830;SDS011;45711;50.108;13.712;2024-03-22T10:23:44;108.78;;;12.88;;
59830;SDS011;45711;50.108;13.712;2024-03-22T10:26:14;16.95;;;7.25;;
59830;SDS011;45711;50.108;13.712;2024-03-22T10:28:46;17.55;;;8.55;;
59830;SDS011;45711;50.108;13.712;2024-03-22T10:31:12;14.10;;;7.32;;
59830;SDS011;45711;50.108;13.712;2024-03-22T10:33:38;19.75;;;9.60;;
59830;SDS011;45711;50.108;13.712;2024-03-22T10:36:09;24.40;;;11.60;;
59830;SDS011;45711;50.108;13.712;2024-03-22T10:38:38;22.50;;;10.85;;
59830;SDS011;45711;50.108;13.712;2024-03-22T10:41:05;16.50;;;8.40;;
59830;SDS011;45711;50.108;13.712;2024-03-22T10:43:31;22.55;;;10.35;;
59830;SDS011;45711;50.108;13.712;2024-03-22T10:46:02;18.58;;;10.00;;
59830;SDS011;45711;50.108;13.712;2024-03-22T10:48:34;20.77;;;10.77;;
59830;SDS011;45711;50.108;13.712;2024-03-22T10:51:00;19.63;;;10.48;;
59830;SDS011;45711;50.108;13.712;2024-03-22T10:53:28;23.90;;;11.70;;
59830;SDS011;45711;50.108;13.712;2024-03-22T10:55:59;20.55;;;11.20;;
59830;SDS011;45711;50.108;13.712;2024-03-22T10:58:26;22.17;;;11.15;;
59830;SDS011;45711;50.108;13.712;2024-03-22T11:00:52;21.73;;;9.65;;
59830;SDS011;45711;50.108;13.712;2024-03-22T11:03:24;15.70;;;9.02;;
59830;SDS011;45711;50.108;13.712;2024-03-22T11:05:53;23.40;;;12.15;;
59830;SDS011;45711;50.108;13.712;2024-03-22T11:08:27;15.57;;;8.05;;
59830;SDS011;45711;50.108;13.712;2024-03-22T11:10:54;21.98;;;11.60;;
59830;SDS011;45711;50.108;13.712;2024-03-22T11:13:21;23.95;;;11.75;;
59830;SDS011;45711;50.108;13.712;2024-03-22T11:15:47;15.98;;;8.10;;
59830;SDS011;45711;50.108;13.712;2024-03-22T11:18:19;17.13;;;8.43;;
59830;SDS011;45711;50.108;13.712;2024-03-22T11:20:44;17.63;;;9.60;;
59830;SDS011;45711;50.108;13.712;2024-03-22T11:23:10;18.60;;;9.75;;
59830;SDS011;45711;50.108;13.712;2024-03-22T11:25:38;20.88;;;10.25;;
59830;SDS011;45711;50.108;13.712;2024-03-22T11:28:04;20.17;;;10.32;;
59830;SDS011;45711;50.108;13.712;2024-03-22T11:30:31;21.83;;;10.57;;
59830;SDS011;45711;50.108;13.712;2024-03-22T11:32:59;13.90;;;8.43;;
59830;SDS011;45711;50.108;13.712;2024-03-22T11:35:29;19.05;;;9.55;;
59830;SDS011;45711;50.108;13.712;2024-03-22T11:37:54;19.08;;;8.60;;
59830;SDS011;45711;50.108;13.712;2024-03-22T11:40:21;15.57;;;8.05;;
59830;SDS011;45711;50.108;13.712;2024-03-22T11:42:49;15.43;;;8.35;;
59830;SDS011;45711;50.108;13.712;2024-03-22T11:45:17;15.82;;;8.15;;
59830;SDS011;45711;50.108;13.712;2024-03-22T11:47:47;15.18;;;8.23;;
59830;SDS011;45711;50.108;13.712;2024-03-22T11:50:16;12.88;;;7.95;;
59830;SDS011;45711;50.108;13.712;2024-03-22T11:52:44;14.20;;;7.93;;
59830;SDS011;45711;50.108;13.712;2024-03-22T11:55:14;12.50;;;7.10;;
59830;SDS011;45711;50.108;13.712;2024-03-22T11:57:40;12.30;;;6.07;;
59830;SDS011;45711;50.108;13.712;2024-03-22T12:00:06;10.82;;;6.50;;
59830;SDS011;45711;50.108;13.712;2024-03-22T12:02:35;16.05;;;6.68;;
59830;SDS011;45711;50.108;13.712;2024-03-22T12:05:03;10.32;;;6.32;;
59830;SDS011;45711;50.108;13.712;2024-03-22T12:07:30;11.15;;;5.30;;
59830;SDS011;45711;50.108;13.712;2024-03-22T12:09:56;8.10;;;5.28;;
59830;SDS011;45711;50.108;13.712;2024-03-22T12:12:21;11.32;;;5.15;;
59830;SDS011;45711;50.108;13.712;2024-03-22T12:14:48;8.93;;;4.82;;
59830;SDS011;45711;50.108;13.712;2024-03-22T12:17:16;7.45;;;3.72;;
59830;SDS011;45711;50.108;13.712;2024-03-22T12:19:42;10.93;;;4.55;;
59830;SDS011;45711;50.108;13.712;2024-03-22T12:22:07;16.58;;;3.78;;
59830;SDS011;45711;50.108;13.712;2024-03-22T12:24:33;9.98;;;3.75;;
59830;SDS011;45711;50.108;13.712;2024-03-22T12:26:58;8.98;;;3.40;;
59830;SDS011;45711;50.108;13.712;2024-03-22T12:29:24;7.30;;;3.40;;
59830;SDS011;45711;50.108;13.712;2024-03-22T12:31:50;10.50;;;3.30;;
59830;SDS011;45711;50.108;13.712;2024-03-22T12:34:16;9.55;;;4.05;;
59830;SDS011;45711;50.108;13.712;2024-03-22T12:36:42;10.95;;;2.53;;
59830;SDS011;45711;50.108;13.712;2024-03-22T12:39:08;12.23;;;4.80;;
59830;SDS011;45711;50.108;13.712;2024-03-22T12:41:33;8.82;;;3.20;;
59830;SDS011;45711;50.108;13.712;2024-03-22T12:43:59;4.25;;;2.70;;
59830;SDS011;45711;50.108;13.712;2024-03-22T12:46:28;7.40;;;3.38;;
59830;SDS011;45711;50.108;13.712;2024-03-22T12:48:53;5.80;;;3.20;;
59830;SDS011;45711;50.108;13.712;2024-03-22T12:51:19;32.28;;;4.53;;
59830;SDS011;45711;50.108;13.712;2024-03-22T12:53:45;11.88;;;4.13;;
59830;SDS011;45711;50.108;13.712;2024-03-22T12:56:13;7.50;;;3.00;;
59830;SDS011;45711;50.108;13.712;2024-03-22T12:58:38;11.60;;;3.88;;
59830;SDS011;45711;50.108;13.712;2024-03-22T13:01:09;7.55;;;2.88;;
59830;SDS011;45711;50.108;13.712;2024-03-22T13:06:03;8.93;;;3.13;;
59830;SDS011;45711;50.108;13.712;2024-03-22T13:08:30;8.75;;;3.10;;
59830;SDS011;45711;50.108;13.712;2024-03-22T13:10:56;6.50;;;2.90;;
59830;SDS011;45711;50.108;13.712;2024-03-22T13:13:22;7.95;;;3.53;;
59830;SDS011;45711;50.108;13.712;2024-03-22T13:15:51;6.22;;;2.88;;
59830;SDS011;45711;50.108;13.712;2024-03-22T13:18:17;4.88;;;3.00;;
59830;SDS011;45711;50.108;13.712;2024-03-22T13:20:47;10.68;;;2.70;;
59830;SDS011;45711;50.108;13.712;2024-03-22T13:23:12;6.72;;;2.92;;
59830;SDS011;45711;50.108;13.712;2024-03-22T13:25:38;9.57;;;3.25;;
59830;SDS011;45711;50.108;13.712;2024-03-22T13:28:04;5.68;;;2.42;;
59830;SDS011;45711;50.108;13.712;2024-03-22T13:30:32;7.18;;;3.20;;
59830;SDS011;45711;50.108;13.712;2024-03-22T13:32:58;6.72;;;3.40;;
59830;SDS011;45711;50.108;13.712;2024-03-22T13:35:24;6.47;;;2.75;;
59830;SDS011;45711;50.108;13.712;2024-03-22T13:37:52;8.80;;;3.10;;
59830;SDS011;45711;50.108;13.712;2024-03-22T13:40:17;5.95;;;2.45;;
59830;SDS011;45711;50.108;13.712;2024-03-22T13:42:45;4.53;;;2.90;;
59830;SDS011;45711;50.108;13.712;2024-03-22T13:45:11;10.55;;;2.92;;
59830;SDS011;45711;50.108;13.712;2024-03-22T13:47:36;9.65;;;2.95;;
59830;SDS011;45711;50.108;13.712;2024-03-22T13:50:05;8.10;;;3.20;;
59830;SDS011;45711;50.108;13.712;2024-03-22T13:52:34;9.38;;;3.20;;
59830;SDS011;45711;50.108;13.712;2024-03-22T13:55:05;6.82;;;3.00;;
59830;SDS011;45711;50.108;13.712;2024-03-22T13:57:36;12.02;;;3.45;;
59830;SDS011;45711;50.108;13.712;2024-03-22T14:00:04;12.00;;;4.18;;
59830;SDS011;45711;50.108;13.712;2024-03-22T14:02:33;14.00;;;3.75;;
59830;SDS011;45711;50.108;13.712;2024-03-22T14:04:58;7.22;;;3.33;;
59830;SDS011;45711;50.108;13.712;2024-03-22T14:07:24;9.00;;;4.53;;
59830;SDS011;45711;50.108;13.712;2024-03-22T14:09:52;7.32;;;3.88;;
59830;SDS011;45711;50.108;13.712;2024-03-22T14:12:20;7.25;;;3.00;;
59830;SDS011;45711;50.108;13.712;2024-03-22T14:14:45;6.45;;;3.08;;
59830;SDS011;45711;50.108;13.712;2024-03-22T14:17:13;7.70;;;2.13;;
59830;SDS011;45711;50.108;13.712;2024-03-22T14:19:38;8.07;;;2.30;;
59830;SDS011;45711;50.108;13.712;2024-03-22T14:22:09;5.35;;;1.73;;
59830;SDS011;45711;50.108;13.712;2024-03-22T14:24:37;4.40;;;2.45;;
59830;SDS011;45711;50.108;13.712;2024-03-22T14:27:05;6.22;;;2.80;;